createdAt,value
2017-12-21T00:00:43.254Z,18.17
2017-12-21T00:03:11.556Z,17.17
2017-12-21T00:05:39.866Z,19.57
2017-12-21T00:08:08.145Z,18.60
2017-12-21T00:10:35.697Z,18.37
2017-12-21T00:13:03.215Z,19.00
2017-12-21T00:15:30.761Z,19.80
2017-12-21T00:17:58.367Z,22.83
2017-12-21T00:20:25.903Z,19.77
2017-12-21T00:22:54.213Z,20.07
2017-12-21T00:25:22.574Z,19.33
2017-12-21T00:27:50.098Z,20.50
2017-12-21T00:30:17.661Z,19.80
2017-12-21T00:32:45.182Z,22.83
2017-12-21T00:35:12.720Z,19.30
2017-12-21T00:37:40.253Z,20.60
2017-12-21T00:40:07.776Z,20.77
2017-12-21T00:42:35.341Z,22.70
2017-12-21T00:45:02.914Z,22.70
2017-12-21T00:47:30.457Z,22.70
2017-12-21T00:49:57.984Z,21.73
2017-12-21T00:52:25.527Z,23.57
2017-12-21T00:54:53.822Z,22.67
2017-12-21T00:57:22.115Z,23.73
2017-12-21T00:59:49.693Z,21.30
2017-12-21T01:02:17.268Z,23.90
2017-12-21T01:04:44.834Z,24.13
2017-12-21T01:07:12.408Z,21.57
2017-12-21T01:09:39.932Z,22.37
2017-12-21T01:12:07.474Z,22.57
2017-12-21T01:14:35.773Z,24.37
2017-12-21T01:17:03.304Z,23.43
2017-12-21T01:19:30.825Z,21.87
2017-12-21T01:21:58.339Z,23.17
2017-12-21T01:24:25.926Z,22.60
2017-12-21T01:26:53.451Z,22.37
2017-12-21T01:29:21.846Z,23.13
2017-12-21T01:31:49.384Z,22.57
2017-12-21T01:34:16.914Z,22.97
2017-12-21T01:36:44.433Z,19.37
2017-12-21T01:39:11.965Z,22.70
2017-12-21T01:41:39.527Z,22.17
2017-12-21T01:44:07.816Z,22.23
2017-12-21T01:46:35.342Z,20.40
2017-12-21T01:49:02.869Z,21.03
2017-12-21T01:51:30.410Z,20.53
2017-12-21T01:53:57.935Z,21.07
2017-12-21T01:56:25.852Z,21.77
2017-12-21T01:58:53.363Z,20.97
2017-12-21T02:01:20.892Z,19.97
2017-12-21T02:03:48.439Z,20.47
2017-12-21T02:06:15.976Z,22.23
2017-12-21T02:08:43.494Z,19.30
2017-12-21T02:11:11.028Z,20.20
2017-12-21T02:13:39.314Z,19.50
2017-12-21T02:16:07.622Z,20.90
2017-12-21T02:18:35.137Z,18.60
2017-12-21T02:21:02.713Z,19.03
2017-12-21T02:23:30.221Z,19.60
2017-12-21T02:25:57.757Z,18.37
2017-12-21T02:28:25.310Z,19.27
2017-12-21T02:30:52.858Z,19.80
2017-12-21T02:33:20.403Z,19.20
2017-12-21T02:35:47.990Z,20.43
2017-12-21T02:38:15.567Z,18.87
2017-12-21T02:40:43.158Z,20.30
2017-12-21T02:43:10.669Z,20.13
2017-12-21T02:45:38.271Z,19.87
2017-12-21T02:48:05.789Z,20.63
2017-12-21T02:50:34.113Z,19.87
2017-12-21T02:53:01.680Z,18.70
2017-12-21T02:55:29.239Z,21.40
2017-12-21T02:57:56.756Z,19.40
2017-12-21T03:00:24.322Z,21.07
2017-12-21T03:02:51.829Z,19.83
2017-12-21T03:05:20.143Z,22.70
2017-12-21T03:07:48.501Z,20.13
2017-12-21T03:10:16.152Z,20.07
2017-12-21T03:12:44.457Z,20.23
2017-12-21T03:15:12.833Z,21.07
2017-12-21T03:17:40.378Z,21.00
2017-12-21T03:20:07.958Z,19.73
2017-12-21T03:22:35.490Z,18.47
2017-12-21T03:25:03.096Z,20.40
2017-12-21T03:27:30.639Z,19.00
2017-12-21T03:29:58.298Z,18.40
2017-12-21T03:32:25.854Z,17.03
2017-12-21T03:34:53.381Z,18.57
2017-12-21T03:37:20.901Z,18.50
2017-12-21T03:39:49.256Z,17.57
2017-12-21T03:42:16.795Z,17.50
2017-12-21T03:44:45.109Z,18.00
2017-12-21T03:47:12.649Z,18.47
2017-12-21T03:49:40.273Z,16.70
2017-12-21T03:52:08.568Z,18.37
2017-12-21T03:54:36.884Z,17.70
2017-12-21T03:57:05.184Z,16.90
2017-12-21T03:59:32.738Z,16.10
2017-12-21T04:02:00.243Z,16.23
2017-12-21T04:04:27.843Z,17.00
2017-12-21T04:06:56.896Z,16.77
2017-12-21T04:09:24.480Z,17.03
2017-12-21T04:11:51.995Z,16.40
2017-12-21T04:14:19.524Z,16.37
2017-12-21T04:16:47.032Z,14.93
2017-12-21T04:19:15.317Z,17.10
2017-12-21T04:21:43.618Z,15.67
2017-12-21T04:24:11.138Z,17.10
2017-12-21T04:26:38.688Z,17.07
2017-12-21T04:29:06.207Z,17.07
2017-12-21T04:31:33.740Z,16.43
2017-12-21T04:34:01.257Z,16.00
2017-12-21T04:36:29.559Z,15.63
2017-12-21T04:38:57.880Z,17.67
2017-12-21T04:41:25.452Z,17.53
2017-12-21T04:43:53.772Z,16.20
2017-12-21T04:46:21.325Z,17.57
2017-12-21T04:48:48.892Z,17.23
2017-12-21T04:51:16.466Z,16.63
2017-12-21T04:53:44.003Z,15.67
2017-12-21T04:56:11.548Z,16.37
2017-12-21T04:58:39.089Z,18.13
2017-12-21T05:01:06.635Z,16.20
2017-12-21T05:03:34.145Z,16.30
2017-12-21T05:06:01.674Z,16.83
2017-12-21T05:08:29.983Z,16.27
2017-12-21T05:10:57.534Z,16.33
2017-12-21T05:13:25.053Z,16.90
2017-12-21T05:15:52.583Z,16.33
2017-12-21T05:18:20.109Z,16.57
2017-12-21T05:20:48.478Z,16.40
2017-12-21T05:23:16.053Z,17.43
2017-12-21T05:25:43.570Z,15.50
2017-12-21T05:28:11.108Z,15.73
2017-12-21T05:30:38.685Z,16.37
2017-12-21T05:33:06.977Z,16.57
2017-12-21T05:35:34.520Z,15.30
2017-12-21T05:38:02.060Z,15.97
2017-12-21T05:40:29.655Z,16.60
2017-12-21T05:42:57.212Z,16.30
2017-12-21T05:45:24.764Z,17.07
2017-12-21T05:47:53.077Z,16.83
2017-12-21T05:50:20.604Z,16.57
2017-12-21T05:52:48.132Z,15.73
2017-12-21T05:55:16.451Z,16.10
2017-12-21T05:57:43.987Z,15.30
2017-12-21T06:00:11.525Z,16.20
2017-12-21T06:02:39.236Z,15.67
2017-12-21T06:05:06.791Z,15.80
2017-12-21T06:07:34.463Z,14.63
2017-12-21T06:10:02.782Z,16.47
2017-12-21T06:12:30.368Z,15.37
2017-12-21T06:14:57.937Z,15.73
2017-12-21T06:17:25.481Z,14.90
2017-12-21T06:19:53.032Z,15.43
2017-12-21T06:22:20.607Z,15.00
2017-12-21T06:24:49.022Z,17.30
2017-12-21T06:27:16.714Z,14.30
2017-12-21T06:29:44.268Z,14.23
2017-12-21T06:32:11.806Z,14.70
2017-12-21T06:34:40.101Z,15.37
2017-12-21T06:37:07.647Z,14.97
2017-12-21T06:39:35.241Z,16.00
2017-12-21T06:42:02.839Z,15.60
2017-12-21T06:44:30.379Z,14.27
2017-12-21T06:46:58.101Z,14.00
2017-12-21T06:49:25.669Z,14.90
2017-12-21T06:51:53.540Z,13.40
2017-12-21T06:54:21.867Z,14.70
2017-12-21T06:56:49.740Z,13.53
2017-12-21T06:59:18.111Z,16.33
2017-12-21T07:01:45.695Z,14.23
2017-12-21T07:04:13.255Z,13.10
2017-12-21T07:06:41.717Z,13.97
2017-12-21T07:09:10.131Z,13.30
2017-12-21T07:11:37.672Z,14.27
2017-12-21T07:14:05.986Z,12.87
2017-12-21T07:16:34.452Z,12.60
2017-12-21T07:19:01.979Z,12.40
2017-12-21T07:21:30.522Z,12.93
2017-12-21T07:23:58.055Z,13.43
2017-12-21T07:26:25.658Z,11.57
2017-12-21T07:28:54.033Z,12.97
2017-12-21T07:31:21.570Z,11.40
2017-12-21T07:33:49.412Z,10.77
2017-12-21T07:36:16.961Z,11.13
2017-12-21T07:38:44.496Z,11.17
2017-12-21T07:41:12.051Z,10.57
2017-12-21T07:43:40.436Z,11.70
2017-12-21T07:46:07.988Z,11.53
2017-12-21T07:48:35.518Z,9.60
2017-12-21T07:51:03.076Z,11.00
2017-12-21T07:53:30.599Z,9.73
2017-12-21T07:55:59.050Z,11.37
2017-12-21T07:58:26.592Z,10.10
2017-12-21T08:00:54.961Z,9.90
2017-12-21T08:03:22.460Z,9.83
2017-12-21T08:05:50.092Z,9.90
2017-12-21T08:08:17.605Z,10.50
2017-12-21T08:10:45.146Z,9.53
2017-12-21T08:13:12.750Z,7.83
2017-12-21T08:15:41.102Z,8.63
2017-12-21T08:18:08.732Z,7.53
2017-12-21T08:20:36.310Z,9.00
2017-12-21T08:23:03.864Z,7.10
2017-12-21T08:25:31.425Z,8.00
2017-12-21T08:27:58.950Z,7.60
2017-12-21T08:30:26.505Z,7.97
2017-12-21T08:32:54.058Z,6.70
2017-12-21T08:35:21.810Z,6.47
2017-12-21T08:37:49.449Z,6.40
2017-12-21T08:40:16.988Z,5.43
2017-12-21T08:42:44.520Z,6.70
2017-12-21T08:45:12.094Z,7.47
2017-12-21T08:47:40.440Z,6.37
2017-12-21T08:50:07.968Z,5.77
2017-12-21T08:52:36.299Z,5.57
2017-12-21T08:55:04.612Z,6.17
2017-12-21T08:57:32.137Z,5.47
2017-12-21T08:59:59.709Z,5.03
2017-12-21T09:02:27.335Z,5.57
2017-12-21T09:04:54.893Z,4.93
2017-12-21T09:07:22.735Z,6.27
2017-12-21T09:09:50.371Z,6.97
2017-12-21T09:12:17.960Z,11.23
2017-12-21T09:14:45.497Z,14.90
2017-12-21T09:17:13.054Z,18.90
2017-12-21T09:19:40.597Z,19.90
2017-12-21T09:22:08.204Z,20.53
2017-12-21T09:24:35.765Z,18.00
2017-12-21T09:27:03.290Z,18.30
2017-12-21T09:29:31.711Z,17.03
2017-12-21T09:31:59.299Z,12.90
2017-12-21T09:34:26.847Z,11.80
2017-12-21T09:36:54.419Z,7.70
2017-12-21T09:39:21.956Z,6.20
2017-12-21T09:41:50.303Z,4.77
2017-12-21T09:44:17.849Z,4.57
2017-12-21T09:46:46.268Z,4.90
2017-12-21T09:49:14.583Z,4.57
2017-12-21T09:51:42.880Z,3.73
2017-12-21T09:54:11.223Z,4.97
2017-12-21T09:56:38.846Z,3.97
2017-12-21T09:59:06.386Z,3.03
2017-12-21T10:01:33.915Z,4.23
2017-12-21T10:04:01.445Z,4.00
2017-12-21T10:06:28.965Z,3.77
2017-12-21T10:08:56.518Z,3.43
2017-12-21T10:11:24.087Z,3.53
2017-12-21T10:13:52.408Z,3.60
2017-12-21T10:16:20.704Z,3.33
2017-12-21T10:18:49.187Z,2.97
2017-12-21T10:21:16.739Z,3.30
2017-12-21T10:23:44.270Z,4.07
2017-12-21T10:26:11.818Z,3.00
2017-12-21T10:28:39.343Z,3.40
2017-12-21T10:31:06.886Z,3.43
2017-12-21T10:33:34.416Z,4.17
2017-12-21T10:36:02.040Z,3.93
2017-12-21T10:38:30.334Z,3.60
2017-12-21T10:40:57.958Z,4.17
2017-12-21T10:43:25.515Z,3.50
2017-12-21T10:45:53.136Z,3.70
2017-12-21T10:48:20.681Z,4.13
2017-12-21T10:50:48.223Z,4.10
2017-12-21T10:53:15.781Z,4.37
2017-12-21T10:55:43.426Z,3.50
2017-12-21T10:58:11.109Z,3.80
2017-12-21T11:00:39.558Z,3.90
2017-12-21T11:03:07.192Z,3.20
2017-12-21T11:05:34.760Z,4.40
2017-12-21T11:08:02.427Z,4.13
2017-12-21T11:10:29.952Z,4.87
2017-12-21T11:12:57.505Z,4.20
2017-12-21T11:15:25.102Z,4.30
2017-12-21T11:17:52.663Z,4.30
2017-12-21T11:20:20.506Z,4.60
2017-12-21T11:22:48.054Z,4.73
2017-12-21T11:25:15.619Z,5.50
2017-12-21T11:27:43.921Z,4.80
2017-12-21T11:30:12.266Z,4.60
2017-12-21T11:32:39.868Z,4.80
2017-12-21T11:35:07.359Z,5.63
2017-12-21T11:37:35.073Z,6.13
2017-12-21T11:40:02.698Z,4.63
2017-12-21T11:42:30.341Z,6.53
2017-12-21T11:44:57.883Z,4.87
2017-12-21T11:47:26.215Z,5.80
2017-12-21T11:49:53.746Z,5.00
2017-12-21T11:52:21.369Z,6.40
2017-12-21T11:54:49.727Z,7.60
2017-12-21T11:57:17.299Z,6.37
2017-12-21T11:59:44.837Z,4.70
2017-12-21T12:02:13.147Z,6.30
2017-12-21T12:04:40.794Z,5.10
2017-12-21T12:07:08.395Z,7.67
2017-12-21T12:09:35.974Z,5.90
2017-12-21T12:12:03.704Z,5.70
2017-12-21T12:14:32.122Z,7.03
2017-12-21T12:16:59.668Z,5.93
2017-12-21T12:19:28.022Z,5.13
2017-12-21T12:21:55.845Z,4.90
2017-12-21T12:24:23.408Z,5.97
2017-12-21T12:26:50.990Z,4.90
2017-12-21T12:29:18.536Z,5.90
2017-12-21T12:31:46.098Z,7.50
2017-12-21T12:34:13.639Z,6.00
2017-12-21T12:36:41.985Z,5.37
2017-12-21T12:39:09.618Z,4.80
2017-12-21T12:41:37.207Z,4.70
2017-12-21T12:44:04.743Z,5.37
2017-12-21T12:46:32.318Z,5.50
2017-12-21T12:49:00.788Z,4.80
2017-12-21T12:51:28.333Z,4.10
2017-12-21T12:53:56.631Z,5.30
2017-12-21T12:56:24.191Z,4.73
2017-12-21T12:58:52.649Z,4.50
2017-12-21T13:01:20.224Z,4.60
2017-12-21T13:03:47.779Z,3.90
2017-12-21T13:06:16.222Z,5.03
2017-12-21T13:08:44.546Z,4.60
2017-12-21T13:11:12.083Z,6.20
2017-12-21T13:13:40.370Z,4.73
2017-12-21T13:16:08.707Z,5.27
2017-12-21T13:18:36.228Z,4.27
2017-12-21T13:21:03.874Z,4.20
2017-12-21T13:23:31.407Z,5.00
2017-12-21T13:25:59.749Z,4.30
2017-12-21T13:28:27.317Z,3.03
2017-12-21T13:30:54.940Z,3.90
2017-12-21T13:33:22.517Z,5.40
2017-12-21T13:35:50.123Z,4.30
2017-12-21T13:38:17.673Z,4.30
2017-12-21T13:40:45.967Z,3.60
2017-12-21T13:43:14.326Z,4.30
2017-12-21T13:45:41.858Z,3.33
2017-12-21T13:48:09.414Z,4.17
2017-12-21T13:50:36.975Z,4.57
2017-12-21T13:53:04.600Z,5.50
2017-12-21T13:55:32.153Z,4.07
2017-12-21T13:57:59.815Z,4.23
2017-12-21T14:00:27.396Z,6.67
2017-12-21T14:02:55.258Z,3.90
2017-12-21T14:05:22.804Z,4.17
2017-12-21T14:07:50.405Z,4.87
2017-12-21T14:10:17.916Z,3.93
2017-12-21T14:12:45.452Z,4.90
2017-12-21T14:15:12.989Z,4.20
2017-12-21T14:17:40.546Z,5.70
2017-12-21T14:20:08.159Z,4.20
2017-12-21T14:22:35.687Z,4.90
2017-12-21T14:25:04.083Z,4.37
2017-12-21T14:27:31.658Z,10.20
2017-12-21T14:29:59.180Z,5.20
2017-12-21T14:32:26.755Z,4.77
2017-12-21T14:34:54.382Z,5.77
2017-12-21T14:37:22.001Z,4.90
2017-12-21T14:39:49.531Z,5.03
2017-12-21T14:42:17.256Z,6.10
2017-12-21T14:44:45.587Z,7.10
2017-12-21T14:47:13.288Z,7.10
2017-12-21T14:49:40.852Z,6.47
2017-12-21T14:52:08.376Z,5.93
2017-12-21T14:54:35.933Z,6.20
2017-12-21T14:57:04.256Z,6.30
2017-12-21T14:59:32.291Z,6.53
2017-12-21T15:01:59.942Z,7.17
2017-12-21T15:04:27.503Z,9.70
2017-12-21T15:06:55.812Z,8.27
2017-12-21T15:09:23.469Z,7.77
2017-12-21T15:11:51.056Z,7.67
2017-12-21T15:14:18.750Z,7.70
2017-12-21T15:16:46.328Z,7.10
2017-12-21T15:19:13.951Z,7.20
2017-12-21T15:21:42.307Z,7.53
2017-12-21T15:24:09.859Z,6.87
2017-12-21T15:26:37.449Z,6.87
2017-12-21T15:29:04.975Z,7.83
2017-12-21T15:31:32.625Z,9.33
2017-12-21T15:34:00.186Z,7.60
2017-12-21T15:36:27.758Z,8.07
2017-12-21T15:38:56.063Z,9.70
2017-12-21T15:41:24.441Z,8.70
2017-12-21T15:43:52.028Z,8.77
2017-12-21T15:46:19.583Z,8.33
2017-12-21T15:48:47.164Z,10.20
2017-12-21T15:51:14.803Z,9.77
2017-12-21T15:53:42.447Z,7.97
2017-12-21T15:56:10.030Z,9.23
2017-12-21T15:58:37.607Z,7.80
2017-12-21T16:01:05.175Z,8.80
2017-12-21T16:03:33.497Z,8.50
2017-12-21T16:06:01.060Z,7.87
2017-12-21T16:08:29.390Z,8.47
2017-12-21T16:10:56.931Z,8.40
2017-12-21T16:13:24.482Z,10.80
2017-12-21T16:15:52.250Z,8.90
2017-12-21T16:18:19.786Z,10.10
2017-12-21T16:20:47.352Z,10.67
2017-12-21T16:23:14.995Z,10.53
2017-12-21T16:25:43.287Z,9.67
2017-12-21T16:28:10.814Z,10.37
2017-12-21T16:30:38.375Z,9.30
2017-12-21T16:33:06.675Z,10.27
2017-12-21T16:35:34.987Z,10.27
2017-12-21T16:38:02.598Z,8.37
2017-12-21T16:40:30.928Z,8.63
2017-12-21T16:42:58.456Z,9.60
2017-12-21T16:45:26.608Z,9.47
2017-12-21T16:47:54.154Z,9.47
2017-12-21T16:50:22.667Z,10.93
2017-12-21T16:52:50.355Z,10.60
2017-12-21T16:55:17.911Z,10.17
2017-12-21T16:57:45.451Z,9.50
2017-12-21T17:00:13.130Z,9.80
2017-12-21T17:02:40.696Z,10.43
2017-12-21T17:05:08.229Z,9.40
2017-12-21T17:07:35.768Z,10.50
2017-12-21T17:10:03.311Z,9.97
2017-12-21T17:12:30.916Z,9.00
2017-12-21T17:14:59.252Z,9.53
2017-12-21T17:17:26.943Z,9.40
2017-12-21T17:19:54.540Z,10.10
2017-12-21T17:22:22.061Z,11.30
2017-12-21T17:24:49.733Z,10.57
2017-12-21T17:27:18.107Z,11.10
2017-12-21T17:29:45.684Z,12.20
2017-12-21T17:32:13.259Z,11.50
2017-12-21T17:34:41.092Z,10.63
2017-12-21T17:37:09.474Z,10.50
2017-12-21T17:39:37.018Z,11.50
2017-12-21T17:42:04.587Z,13.63
2017-12-21T17:44:32.300Z,9.53
2017-12-21T17:46:59.830Z,11.27
2017-12-21T17:49:27.394Z,12.17
2017-12-21T17:51:55.600Z,11.27
2017-12-21T17:54:23.164Z,9.93
2017-12-21T17:56:50.789Z,10.10
2017-12-21T17:59:19.615Z,9.70
2017-12-21T18:01:47.388Z,11.70
2017-12-21T18:04:14.937Z,11.03
2017-12-21T18:06:42.531Z,10.07
2017-12-21T18:09:10.049Z,10.30
2017-12-21T18:11:37.606Z,10.73
2017-12-21T18:14:05.154Z,11.20
2017-12-21T18:16:32.942Z,11.40
2017-12-21T18:19:01.270Z,10.70
2017-12-21T18:21:28.854Z,11.17
2017-12-21T18:23:56.385Z,11.90
2017-12-21T18:26:24.032Z,13.50
2017-12-21T18:28:51.591Z,11.93
2017-12-21T18:31:19.897Z,12.40
2017-12-21T18:33:47.509Z,12.53
2017-12-21T18:36:15.904Z,12.30
2017-12-21T18:38:44.241Z,13.67
2017-12-21T18:41:11.757Z,13.10
2017-12-21T18:43:39.405Z,12.07
2017-12-21T18:46:06.946Z,12.40
2017-12-21T18:48:34.529Z,12.97
2017-12-21T18:51:02.125Z,13.07
2017-12-21T18:53:29.743Z,13.10
2017-12-21T18:55:57.290Z,11.50
2017-12-21T18:58:24.895Z,12.60
2017-12-21T19:00:52.418Z,12.40
2017-12-21T19:03:20.733Z,13.40
2017-12-21T19:05:49.067Z,12.57
2017-12-21T19:08:16.731Z,12.30
2017-12-21T19:10:45.308Z,13.47
2017-12-21T19:13:12.891Z,12.83
2017-12-21T19:15:40.523Z,11.87
2017-12-21T19:18:08.086Z,12.97
2017-12-21T19:20:35.739Z,13.63
2017-12-21T19:23:03.323Z,13.93
2017-12-21T19:25:30.891Z,14.30
2017-12-21T19:27:59.201Z,14.20
2017-12-21T19:30:26.778Z,15.03
2017-12-21T19:32:54.360Z,14.30
2017-12-21T19:35:22.697Z,14.30
2017-12-21T19:37:50.285Z,15.10
2017-12-21T19:40:17.887Z,14.70
2017-12-21T19:42:45.561Z,15.23
2017-12-21T19:45:13.119Z,16.70
2017-12-21T19:47:40.734Z,17.20
2017-12-21T19:50:09.040Z,16.70
2017-12-21T19:52:37.462Z,15.87
2017-12-21T19:55:05.144Z,17.77
2017-12-21T19:57:32.684Z,17.10
2017-12-21T20:00:00.219Z,17.47
2017-12-21T20:02:27.814Z,17.07
2017-12-21T20:04:55.377Z,16.53
2017-12-21T20:07:22.910Z,16.33
2017-12-21T20:09:50.629Z,17.63
2017-12-21T20:12:18.235Z,17.30
2017-12-21T20:14:46.025Z,18.30
2017-12-21T20:17:13.529Z,18.07
2017-12-21T20:19:41.131Z,18.80
2017-12-21T20:22:08.736Z,17.83
2017-12-21T20:24:36.466Z,17.40
2017-12-21T20:27:04.815Z,17.27
2017-12-21T20:29:32.374Z,17.90
2017-12-21T20:31:59.965Z,17.77
2017-12-21T20:34:27.562Z,17.73
2017-12-21T20:36:55.810Z,18.37
2017-12-21T20:39:24.097Z,18.77
2017-12-21T20:41:51.759Z,18.13
2017-12-21T20:44:19.266Z,18.70
2017-12-21T20:46:46.805Z,18.07
2017-12-21T20:49:14.380Z,19.10
2017-12-21T20:51:42.672Z,19.20
2017-12-21T20:54:10.996Z,18.27
2017-12-21T20:56:39.359Z,18.90
2017-12-21T20:59:06.938Z,18.67
2017-12-21T21:01:34.500Z,18.73
2017-12-21T21:04:02.884Z,16.63
2017-12-21T21:06:31.193Z,17.17
2017-12-21T21:08:59.487Z,19.13
2017-12-21T21:11:27.021Z,18.20
2017-12-21T21:13:54.577Z,18.70
2017-12-21T21:16:22.926Z,17.90
2017-12-21T21:18:51.412Z,18.20
2017-12-21T21:21:19.706Z,17.70
2017-12-21T21:23:47.990Z,17.90
2017-12-21T21:26:15.602Z,17.67
2017-12-21T21:28:43.923Z,17.00
2017-12-21T21:31:12.241Z,17.40
2017-12-21T21:33:40.690Z,18.27
2017-12-21T21:36:08.222Z,18.00
2017-12-21T21:38:35.790Z,18.87
2017-12-21T21:41:03.348Z,16.97
2017-12-21T21:43:32.616Z,15.87
2017-12-21T21:46:00.184Z,16.27
2017-12-21T21:48:28.564Z,17.70
2017-12-21T21:50:56.869Z,15.83
2017-12-21T21:53:24.468Z,15.20
2017-12-21T21:55:52.098Z,15.67
2017-12-21T21:58:19.661Z,16.57
2017-12-21T22:00:47.206Z,17.43
2017-12-21T22:03:14.796Z,16.07
2017-12-21T22:05:42.373Z,17.23
2017-12-21T22:08:09.919Z,16.43
2017-12-21T22:10:37.452Z,14.67
2017-12-21T22:13:04.976Z,15.37
2017-12-21T22:15:32.526Z,15.70
2017-12-21T22:18:00.079Z,15.90
2017-12-21T22:20:27.610Z,14.63
2017-12-21T22:22:55.305Z,15.00
2017-12-21T22:25:22.851Z,15.90
2017-12-21T22:27:51.208Z,15.53
2017-12-21T22:30:19.275Z,17.50
2017-12-21T22:32:46.801Z,16.67
2017-12-21T22:35:14.395Z,16.47
2017-12-21T22:37:41.951Z,15.97
2017-12-21T22:40:09.512Z,16.30
2017-12-21T22:42:37.046Z,15.83
2017-12-21T22:45:04.648Z,15.70
2017-12-21T22:47:32.188Z,15.57
2017-12-21T22:49:59.710Z,17.47
2017-12-21T22:52:27.268Z,18.20
2017-12-21T22:54:54.804Z,15.50
2017-12-21T22:57:22.326Z,17.93
2017-12-21T22:59:49.868Z,16.80
2017-12-21T23:02:17.637Z,15.20
2017-12-21T23:04:45.217Z,14.27
2017-12-21T23:07:12.747Z,15.67
2017-12-21T23:09:40.327Z,17.57
2017-12-21T23:12:07.886Z,14.80
2017-12-21T23:14:35.424Z,13.63
2017-12-21T23:17:02.955Z,14.73
2017-12-21T23:19:30.627Z,13.40
2017-12-21T23:21:58.144Z,14.57
2017-12-21T23:24:25.770Z,14.67
2017-12-21T23:26:54.088Z,12.97
2017-12-21T23:29:21.663Z,13.50
2017-12-21T23:31:49.269Z,13.40
2017-12-21T23:34:16.868Z,12.17
2017-12-21T23:36:44.365Z,13.33
2017-12-21T23:39:11.949Z,12.80
2017-12-21T23:41:39.483Z,12.30
2017-12-21T23:44:07.774Z,13.63
2017-12-21T23:46:35.330Z,12.73
2017-12-21T23:49:02.868Z,13.10
2017-12-21T23:51:31.171Z,13.23
2017-12-21T23:53:58.802Z,14.20
2017-12-21T23:56:26.330Z,13.97
2017-12-21T23:58:53.961Z,14.30
